Time;durP1;ratioP1;P1;durP2;ratioP2;P2;SDS_P1;SDS_P2;PMS_P1;PMS_P2;Temp;Humidity;BMP_temperature;BMP_pressure;BME280_temperature;BME280_humidity;BME280_pressure;Samples;Min_cycle;Max_cycle;Signal;HPM_P1;HPM_P2
2022/07/28 00:00:32;;;;;;;;;;;;;;;;;;5078383;28;19970;-27
2022/07/28 00:02:58;;;;;;;;;;;;;;;;;;5078097;28;19946;-26
2022/07/28 00:05:24;;;;;;;;;;;;;;;;;;5077714;28;19950;-27
2022/07/28 00:07:50;;;;;;;;;;;;;;;;;;5078285;28;19936;-26
2022/07/28 00:10:16;;;;;;;;;;;;;;;;;;5077645;28;20355;-27
2022/07/28 00:12:42;;;;;;;;;;;;;;;;;;5077474;28;19955;-26
2022/07/28 00:15:08;;;;;;;;;;;;;;;;;;5077562;28;19909;-26
2022/07/28 00:17:34;;;;;;;;;;;;;;;;;;5078028;28;20010;-27
2022/07/28 00:20:00;;;;;;;;;;;;;;;;;;5077496;28;19908;-27
2022/07/28 00:22:26;;;;;;;;;;;;;;;;;;5077395;28;19982;-27
2022/07/28 00:24:52;;;;;;;;;;;;;;;;;;5077379;28;20313;-26
2022/07/28 00:27:18;;;;;;;;;;;;;;;;;;5077420;28;19915;-27
2022/07/28 00:29:44;;;;;;;;;;;;;;;;;;5077846;28;19912;-26
2022/07/28 00:32:10;;;;;;;;;;;;;;;;;;5077184;28;19920;-26
2022/07/28 00:34:36;;;;;;;;;;;;;;;;;;5077290;28;19913;-26
2022/07/28 00:37:02;;;;;;;;;;;;;;;;;;5077707;28;19909;-26
2022/07/28 00:39:28;;;;;;;;;;;;;;;;;;5077092;28;20359;-26
2022/07/28 00:41:54;;;;;;;;;;;;;;;;;;5077281;28;19915;-26
2022/07/28 00:44:20;;;;;;;;;;;;;;;;;;5076990;28;19912;-26
2022/07/28 00:46:46;;;;;;;;;;;;;;;;;;5077066;28;19962;-26
2022/07/28 00:49:12;;;;;;;;;;;;;;;;;;5077178;28;19912;-26
2022/07/28 00:51:38;;;;;;;;;;;;;;;;;;5076796;28;19939;-27
2022/07/28 00:54:04;;;;;;;;;;;;;;;;;;5077322;28;20001;-27
2022/07/28 00:56:30;;;;;;;;;;;;;;;;;;5077393;28;20276;-27
2022/07/28 00:58:56;;;;;;;;;;;;;;;;;;5076737;28;19913;-27
2022/07/28 01:01:22;;;;;;;;;;;;;;;;;;5077287;28;20335;-27
2022/07/28 01:03:48;;;;;;;;;;;;;;;;;;5077005;28;20315;-27
2022/07/28 01:06:15;;;;;;;;;;;;;;;;;;5076607;28;20313;-27
2022/07/28 01:08:41;;;;;;;;;;;;;;;;;;5076783;28;20261;-27
2022/07/28 01:11:07;;;;;;;;;;;;;;;;;;5076456;28;20007;-27
2022/07/28 01:13:33;;;;;;;;;;;;;;;;;;5076416;28;19916;-27
2022/07/28 01:15:59;;;;;;;;;;;;;;;;;;5076680;28;20309;-27
2022/07/28 01:18:25;;;;;;;;;;;;;;;;;;5076389;28;19908;-27
2022/07/28 01:20:51;;;;;;;;;;;;;;;;;;5076527;28;19971;-27
2022/07/28 01:23:16;;;;;;;;;;;;;;;;;;5076427;28;19930;-27
2022/07/28 01:25:42;;;;;;;;;;;;;;;;;;5076516;28;19920;-27
2022/07/28 01:28:08;;;;;;;;;;;;;;;;;;5058600;28;20001;-27
2022/07/28 01:30:34;;;;;;;;;;;;;;;;;;5076049;28;19913;-27
2022/07/28 01:33:00;;;;;;;;;;;;;;;;;;5076019;28;19912;-27
2022/07/28 01:35:27;;;;;;;;;;;;;;;;;;5075961;28;20258;-27
2022/07/28 01:37:52;;;;;;;;;;;;;;;;;;5076711;28;19912;-27
2022/07/28 01:40:19;;;;;;;;;;;;;;;;;;5076198;28;20008;-27
2022/07/28 01:42:45;;;;;;;;;;;;;;;;;;5076115;28;19948;-27
2022/07/28 01:45:11;;;;;;;;;;;;;;;;;;5075836;28;20401;-27
2022/07/28 01:47:37;;;;;;;;;;;;;;;;;;5075238;28;20003;-27
2022/07/28 01:50:03;;;;;;;;;;;;;;;;;;5075667;28;19913;-27
2022/07/28 01:52:29;;;;;;;;;;;;;;;;;;5075571;28;19913;-27
2022/07/28 01:54:55;;;;;;;;;;;;;;;;;;5075646;28;19913;-27
2022/07/28 01:57:21;;;;;;;;;;;;;;;;;;5075601;28;19923;-27
2022/07/28 01:59:47;;;;;;;;;;;;;;;;;;5075490;28;19913;-27
2022/07/28 02:02:13;;;;;;;;;;;;;;;;;;5075304;28;19997;-27
2022/07/28 02:04:39;;;;;;;;;;;;;;;;;;5075775;28;19912;-27
2022/07/28 02:07:05;;;;;;;;;;;;;;;;;;5075451;28;20003;-27
2022/07/28 02:09:31;;;;;;;;;;;;;;;;;;5075430;28;19916;-27
2022/07/28 02:11:57;;;;;;;;;;;;;;;;;;5075307;28;20329;-27
2022/07/28 02:14:23;;;;;;;;;;;;;;;;;;5075646;28;20236;-27
2022/07/28 02:16:49;;;;;;;;;;;;;;;;;;5075880;28;19948;-27
2022/07/28 02:19:15;;;;;;;;;;;;;;;;;;5075351;28;19908;-27
2022/07/28 02:21:41;;;;;;;;;;;;;;;;;;5075553;28;19974;-27
2022/07/28 02:24:07;;;;;;;;;;;;;;;;;;5075437;28;19924;-27
2022/07/28 02:26:33;;;;;;;;;;;;;;;;;;5075253;28;19904;-27
2022/07/28 02:28:59;;;;;;;;;;;;;;;;;;5075145;28;19966;-27
2022/07/28 02:31:25;;;;;;;;;;;;;;;;;;5075160;28;19934;-27
2022/07/28 02:33:51;;;;;;;;;;;;;;;;;;5075289;28;20347;-27
2022/07/28 02:36:17;;;;;;;;;;;;;;;;;;5075146;28;19909;-27
2022/07/28 02:38:43;;;;;;;;;;;;;;;;;;5075155;28;20386;-27
2022/07/28 02:41:09;;;;;;;;;;;;;;;;;;5075605;28;19994;-27
2022/07/28 02:43:35;;;;;;;;;;;;;;;;;;5075568;28;20235;-27
2022/07/28 02:46:01;;;;;;;;;;;;;;;;;;5074976;28;19917;-27
2022/07/28 02:48:27;;;;;;;;;;;;;;;;;;5075033;28;20318;-27
2022/07/28 02:50:53;;;;;;;;;;;;;;;;;;5075456;28;19966;-27
2022/07/28 02:53:19;;;;;;;;;;;;;;;;;;5074887;28;19912;-27
2022/07/28 02:55:46;;;;;;;;;;;;;;;;;;5074910;28;19919;-27
2022/07/28 02:58:12;;;;;;;;;;;;;;;;;;5076008;28;19924;-27
2022/07/28 03:00:37;;;;;;;;;;;;;;;;;;5079266;28;20258;-27
2022/07/28 03:03:03;;;;;;;;;;;;;;;;;;5078698;28;19924;-27
2022/07/28 03:05:29;;;;;;;;;;;;;;;;;;5079491;28;19913;-27
2022/07/28 03:07:57;;;;;;;;;;;;;;;;;;5078919;28;20232;-27
2022/07/28 03:10:24;;;;;;;;;;;;;;;;;;5079131;28;20050;-27
2022/07/28 03:12:50;;;;;;;;;;;;;;;;;;5078576;28;19921;-27
2022/07/28 03:15:16;;;;;;;;;;;;;;;;;;5079016;28;19920;-27
2022/07/28 03:17:42;;;;;;;;;;;;;;;;;;5078957;28;19913;-27
2022/07/28 03:20:08;;;;;;;;;;;;;;;;;;5078618;28;19920;-27
2022/07/28 03:22:34;;;;;;;;;;;;;;;;;;5078512;28;19916;-27
2022/07/28 03:25:00;;;;;;;;;;;;;;;;;;5078534;28;19923;-27
2022/07/28 03:27:26;;;;;;;;;;;;;;;;;;5078468;28;19908;-27
2022/07/28 03:29:52;;;;;;;;;;;;;;;;;;5078455;28;19919;-27
2022/07/28 03:32:18;;;;;;;;;;;;;;;;;;5078479;28;19998;-27
2022/07/28 03:34:44;;;;;;;;;;;;;;;;;;5078594;28;20298;-27
2022/07/28 03:37:10;;;;;;;;;;;;;;;;;;5078745;28;19913;-27
2022/07/28 03:39:36;;;;;;;;;;;;;;;;;;5078525;28;19912;-27
2022/07/28 03:42:02;;;;;;;;;;;;;;;;;;5078367;28;20248;-27
2022/07/28 03:44:28;;;;;;;;;;;;;;;;;;5078122;28;20015;-27
2022/07/28 03:46:54;;;;;;;;;;;;;;;;;;5078145;28;19916;-27
2022/07/28 03:49:20;;;;;;;;;;;;;;;;;;5078311;28;20306;-27
2022/07/28 03:51:47;;;;;;;;;;;;;;;;;;5077823;28;20347;-27
2022/07/28 03:54:13;;;;;;;;;;;;;;;;;;5077925;28;19924;-27
2022/07/28 03:56:39;;;;;;;;;;;;;;;;;;5077835;28;19909;-27
2022/07/28 03:59:05;;;;;;;;;;;;;;;;;;5078362;28;19908;-26
2022/07/28 04:01:30;;;;;;;;;;;;;;;;;;5077694;28;19940;-26
2022/07/28 04:03:56;;;;;;;;;;;;;;;;;;5077311;28;19964;-26
2022/07/28 04:06:22;;;;;;;;;;;;;;;;;;5077529;28;19912;-26
2022/07/28 04:08:48;;;;;;;;;;;;;;;;;;5077363;28;19936;-26
2022/07/28 04:11:14;;;;;;;;;;;;;;;;;;5076757;28;19920;-26
2022/07/28 04:13:40;;;;;;;;;;;;;;;;;;5077469;28;20020;-26
2022/07/28 04:16:06;;;;;;;;;;;;;;;;;;5077630;28;19912;-26
2022/07/28 04:18:32;;;;;;;;;;;;;;;;;;5077710;28;19909;-26
2022/07/28 04:20:58;;;;;;;;;;;;;;;;;;5077289;28;19942;-26
2022/07/28 04:23:24;;;;;;;;;;;;;;;;;;5077364;28;19909;-26
2022/07/28 04:25:50;;;;;;;;;;;;;;;;;;5077340;28;19916;-27
2022/07/28 04:28:16;;;;;;;;;;;;;;;;;;5077060;28;19908;-27
2022/07/28 04:30:42;;;;;;;;;;;;;;;;;;5076765;28;19912;-27
2022/07/28 04:33:08;;;;;;;;;;;;;;;;;;5076742;28;19912;-26
2022/07/28 04:35:35;;;;;;;;;;;;;;;;;;5076932;28;19962;-26
2022/07/28 04:38:01;;;;;;;;;;;;;;;;;;5076676;28;19924;-26
2022/07/28 04:40:27;;;;;;;;;;;;;;;;;;5076639;28;19969;-26
2022/07/28 04:42:53;;;;;;;;;;;;;;;;;;5076742;28;19912;-26
2022/07/28 04:45:19;;;;;;;;;;;;;;;;;;5076396;28;20040;-27
2022/07/28 04:47:45;;;;;;;;;;;;;;;;;;5076406;28;19999;-27
2022/07/28 04:50:14;;;;;;;;;;;;;;;;;;5076446;28;19963;-27
2022/07/28 04:52:39;;;;;;;;;;;;;;;;;;5076624;28;19999;-26
2022/07/28 04:55:06;;;;;;;;;;;;;;;;;;5076518;28;19947;-27
2022/07/28 04:57:32;;;;;;;;;;;;;;;;;;5076204;28;19978;-27
2022/07/28 04:59:58;;;;;;;;;;;;;;;;;;5076239;28;19912;-27
2022/07/28 05:02:25;;;;;;;;;;;;;;;;;;5075865;28;20243;-27
2022/07/28 05:04:51;;;;;;;;;;;;;;;;;;5076132;28;19961;-27
2022/07/28 05:07:17;;;;;;;;;;;;;;;;;;5075964;28;20343;-27
2022/07/28 05:09:43;;;;;;;;;;;;;;;;;;5076327;28;19965;-27
2022/07/28 05:12:09;;;;;;;;;;;;;;;;;;5075852;28;20347;-27
2022/07/28 05:14:35;;;;;;;;;;;;;;;;;;5076186;28;19919;-27
2022/07/28 05:17:01;;;;;;;;;;;;;;;;;;5075804;28;19912;-27
2022/07/28 05:19:27;;;;;;;;;;;;;;;;;;5075925;28;20362;-27
2022/07/28 05:21:53;;;;;;;;;;;;;;;;;;5074732;28;19912;-27
2022/07/28 05:24:19;;;;;;;;;;;;;;;;;;5075711;28;19908;-27
2022/07/28 05:26:45;;;;;;;;;;;;;;;;;;5075863;28;19955;-27
2022/07/28 05:29:11;;;;;;;;;;;;;;;;;;5076102;28;20319;-27
2022/07/28 05:31:37;;;;;;;;;;;;;;;;;;5075582;28;20240;-27
2022/07/28 05:34:03;;;;;;;;;;;;;;;;;;5075709;28;19924;-27
2022/07/28 05:36:29;;;;;;;;;;;;;;;;;;5076111;28;20003;-27
2022/07/28 05:38:55;;;;;;;;;;;;;;;;;;5076027;28;19917;-27
2022/07/28 05:41:21;;;;;;;;;;;;;;;;;;5075475;28;19913;-27
2022/07/28 05:43:47;;;;;;;;;;;;;;;;;;5075659;28;19912;-27
2022/07/28 05:46:13;;;;;;;;;;;;;;;;;;5075846;28;19913;-27
2022/07/28 05:48:39;;;;;;;;;;;;;;;;;;5075833;28;19969;-27
2022/07/28 05:51:05;;;;;;;;;;;;;;;;;;5075992;28;19924;-27
2022/07/28 05:53:31;;;;;;;;;;;;;;;;;;5075337;28;19923;-27
2022/07/28 05:55:57;;;;;;;;;;;;;;;;;;5075400;28;19995;-27
2022/07/28 05:58:23;;;;;;;;;;;;;;;;;;5075647;28;19955;-27
2022/07/28 06:03:31;;;;;;;;;;;;;;;;;;5277273;22;19930;-29
2022/07/28 06:05:57;;;;;;;;;;;;;;;;;;5015993;28;20280;-28
2022/07/28 06:08:24;;;;;;;;;;;;;;;;;;5014669;28;19940;-28
2022/07/28 06:11:00;;;;;;;;;;;;;;;;;;5015430;28;19915;-28
2022/07/28 06:13:26;;;;;;;;;;;;;;;;;;5015877;28;19914;-28
2022/07/28 06:15:52;;;;;;;;;;;;;;;;;;5015607;28;20370;-28
2022/07/28 06:18:18;;;;;;;;;;;;;;;;;;5015414;28;19914;-28
2022/07/28 06:20:44;;;;;;;;;;;;;;;;;;5015432;28;20299;-28
2022/07/28 06:23:11;;;;;;;;;;;;;;;;;;5015363;28;19909;-28
2022/07/28 06:25:37;;;;;;;;;;;;;;;;;;5015675;28;20264;-27
2022/07/28 06:28:03;;;;;;;;;;;;;;;;;;5015286;28;19918;-28
2022/07/28 06:30:29;;;;;;;;;;;;;;;;;;5015296;28;19917;-28
2022/07/28 06:32:54;;;;;;;;;;;;;;;;;;5015075;28;19917;-28
2022/07/28 06:35:21;;;;;;;;;;;;;;;;;;5015244;28;19910;-28
2022/07/28 06:37:46;;;;;;;;;;;;;;;;;;5015227;28;20378;-29
2022/07/28 06:40:13;;;;;;;;;;;;;;;;;;5015330;28;19921;-27
2022/07/28 06:42:38;;;;;;;;;;;;;;;;;;5014853;28;19921;-28
2022/07/28 06:45:04;;;;;;;;;;;;;;;;;;5015023;28;19916;-28
2022/07/28 06:47:30;;;;;;;;;;;;;;;;;;5015291;28;19963;-28
2022/07/28 06:49:56;;;;;;;;;;;;;;;;;;5015047;28;19944;-28
2022/07/28 06:52:22;;;;;;;;;;;;;;;;;;5014893;28;19925;-28
2022/07/28 06:54:51;;;;;;;;;;;;;;;;;;5014990;28;19937;-28
2022/07/28 06:57:17;;;;;;;;;;;;;;;;;;5014018;28;19996;-28
2022/07/28 06:59:45;;;;;;;;;;;;;;;;;;5014893;28;19959;-28
2022/07/28 07:02:11;;;;;;;;;;;;;;;;;;5014841;28;19971;-28
2022/07/28 07:04:37;;;;;;;;;;;;;;;;;;5014664;28;19987;-28
2022/07/28 07:07:03;;;;;;;;;;;;;;;;;;5014724;28;19910;-27
2022/07/28 07:09:29;;;;;;;;;;;;;;;;;;5014925;28;20248;-28
2022/07/28 07:11:55;;;;;;;;;;;;;;;;;;5014669;28;19913;-27
2022/07/28 07:14:21;;;;;;;;;;;;;;;;;;5014647;28;19979;-28
2022/07/28 07:16:47;;;;;;;;;;;;;;;;;;5014754;28;19975;-29
2022/07/28 07:19:13;;;;;;;;;;;;;;;;;;5014623;28;19913;-28
2022/07/28 07:21:39;;;;;;;;;;;;;;;;;;5014812;28;20332;-29
2022/07/28 07:24:04;;;;;;;;;;;;;;;;;;5014456;28;19913;-28
2022/07/28 07:26:30;;;;;;;;;;;;;;;;;;5014589;28;20249;-28
2022/07/28 07:28:56;;;;;;;;;;;;;;;;;;5014456;28;19983;-28
2022/07/28 07:31:22;;;;;;;;;;;;;;;;;;5014312;28;19979;-29
2022/07/28 07:33:48;;;;;;;;;;;;;;;;;;5014458;28;20363;-28
2022/07/28 07:36:14;;;;;;;;;;;;;;;;;;5014747;28;19952;-28
2022/07/28 07:38:40;;;;;;;;;;;;;;;;;;5014007;28;19913;-29
2022/07/28 07:41:06;;;;;;;;;;;;;;;;;;5014415;28;19910;-28
2022/07/28 07:43:32;;;;;;;;;;;;;;;;;;5014549;28;20245;-29
2022/07/28 07:45:58;;;;;;;;;;;;;;;;;;5016032;28;19920;-28
2022/07/28 07:48:24;;;;;;;;;;;;;;;;;;5017877;28;19957;-29
2022/07/28 07:50:50;;;;;;;;;;;;;;;;;;5017843;28;19992;-28
2022/07/28 07:53:16;;;;;;;;;;;;;;;;;;5016817;28;20072;-29
2022/07/28 07:55:42;;;;;;;;;;;;;;;;;;5017994;28;19924;-28
2022/07/28 07:58:08;;;;;;;;;;;;;;;;;;5017895;28;19909;-28
2022/07/28 08:00:34;;;;;;;;;;;;;;;;;;5017751;28;19976;-28
2022/07/28 08:03:00;;;;;;;;;;;;;;;;;;5016553;28;20007;-28
2022/07/28 08:05:26;;;;;;;;;;;;;;;;;;5017670;28;19914;-28
2022/07/28 08:07:52;;;;;;;;;;;;;;;;;;5017848;28;19913;-28
2022/07/28 08:10:18;;;;;;;;;;;;;;;;;;5017841;28;20240;-28
2022/07/28 08:12:44;;;;;;;;;;;;;;;;;;5017453;28;19917;-28
2022/07/28 08:15:10;;;;;;;;;;;;;;;;;;5017468;28;19928;-28
2022/07/28 08:17:36;;;;;;;;;;;;;;;;;;5017468;28;19910;-28
2022/07/28 08:20:03;;;;;;;;;;;;;;;;;;5017729;28;19981;-28
2022/07/28 08:22:29;;;;;;;;;;;;;;;;;;5017339;28;19914;-28
2022/07/28 08:24:55;;;;;;;;;;;;;;;;;;5017248;28;19909;-28
2022/07/28 08:27:21;;;;;;;;;;;;;;;;;;5017074;28;19975;-29
2022/07/28 08:29:47;;;;;;;;;;;;;;;;;;5017323;28;20324;-29
2022/07/28 08:32:13;;;;;;;;;;;;;;;;;;5016956;28;19971;-28
2022/07/28 08:34:39;;;;;;;;;;;;;;;;;;5016924;28;19939;-29
2022/07/28 08:37:05;;;;;;;;;;;;;;;;;;5016958;28;19914;-28
2022/07/28 08:39:31;;;;;;;;;;;;;;;;;;5016035;28;20314;-28
2022/07/28 08:41:57;;;;;;;;;;;;;;;;;;5017206;28;19937;-29
2022/07/28 08:44:23;;;;;;;;;;;;;;;;;;5015959;28;19921;-27
2022/07/28 08:46:49;;;;;;;;;;;;;;;;;;5017035;28;20398;-29
2022/07/28 08:49:15;;;;;;;;;;;;;;;;;;5017064;28;20221;-28
2022/07/28 08:51:41;;;;;;;;;;;;;;;;;;5016975;28;19918;-29
2022/07/28 08:54:07;;;;;;;;;;;;;;;;;;5015833;28;19913;-29
2022/07/28 08:56:33;;;;;;;;;;;;;;;;;;5016843;28;20355;-28
2022/07/28 08:58:59;;;;;;;;;;;;;;;;;;5016982;28;19989;-28
2022/07/28 09:01:25;;;;;;;;;;;;;;;;;;5015639;28;19920;-28
2022/07/28 09:03:51;;;;;;;;;;;;;;;;;;5016224;28;19996;-29
2022/07/28 09:06:17;;;;;;;;;;;;;;;;;;5016552;28;19913;-29
2022/07/28 09:08:43;;;;;;;;;;;;;;;;;;5015665;28;19971;-29
2022/07/28 09:11:09;;;;;;;;;;;;;;;;;;5016525;28;19917;-29
2022/07/28 09:13:34;;;;;;;;;;;;;;;;;;5016346;28;19921;-28
2022/07/28 09:16:00;;;;;;;;;;;;;;;;;;5016387;28;19910;-29
2022/07/28 09:18:27;;;;;;;;;;;;;;;;;;5016133;28;20004;-28
2022/07/28 09:20:53;;;;;;;;;;;;;;;;;;5015304;28;19917;-29
2022/07/28 09:23:19;;;;;;;;;;;;;;;;;;5016159;28;19914;-28
2022/07/28 09:25:45;;;;;;;;;;;;;;;;;;5016106;28;19913;-28
2022/07/28 09:28:10;;;;;;;;;;;;;;;;;;5016112;28;19917;-28
2022/07/28 09:30:37;;;;;;;;;;;;;;;;;;5016797;28;20051;-28
2022/07/28 09:33:03;;;;;;;;;;;;;;;;;;5015765;28;20272;-28
2022/07/28 09:35:29;;;;;;;;;;;;;;;;;;5015858;28;19914;-28
2022/07/28 09:37:55;;;;;;;;;;;;;;;;;;5016582;28;19909;-28
2022/07/28 09:40:20;;;;;;;;;;;;;;;;;;5015808;28;19975;-29
2022/07/28 09:42:48;;;;;;;;;;;;;;;;;;5015903;28;19968;-31
2022/07/28 09:45:14;;;;;;;;;;;;;;;;;;5015723;28;19979;-28
2022/07/28 09:47:40;;;;;;;;;;;;;;;;;;5015769;28;19913;-29
2022/07/28 09:50:06;;;;;;;;;;;;;;;;;;5015616;28;19914;-28
2022/07/28 09:52:32;;;;;;;;;;;;;;;;;;5016204;28;19928;-28
2022/07/28 09:54:58;;;;;;;;;;;;;;;;;;5015540;28;20363;-29
2022/07/28 09:57:27;;;;;;;;;;;;;;;;;;5014833;28;21316;-28
2022/07/28 09:59:53;;;;;;;;;;;;;;;;;;5015931;28;19913;-29
2022/07/28 10:02:19;;;;;;;;;;;;;;;;;;5015581;28;20233;-28
2022/07/28 10:04:45;;;;;;;;;;;;;;;;;;5015586;28;19940;-28
2022/07/28 10:07:15;;;;;;;;;;;;;;;;;;5014262;28;19924;-30
2022/07/28 10:09:42;;;;;;;;;;;;;;;;;;5016252;28;19944;-29
2022/07/28 10:12:08;;;;;;;;;;;;;;;;;;5015403;28;20004;-29
2022/07/28 10:14:34;;;;;;;;;;;;;;;;;;5014392;28;20320;-28
2022/07/28 10:17:00;;;;;;;;;;;;;;;;;;5015501;28;19981;-29
2022/07/28 10:19:26;;;;;;;;;;;;;;;;;;5015598;28;19913;-28
2022/07/28 10:21:52;;;;;;;;;;;;;;;;;;5015518;28;19910;-29
2022/07/28 10:24:17;;;;;;;;;;;;;;;;;;5015361;28;19921;-30
2022/07/28 10:26:43;;;;;;;;;;;;;;;;;;5015280;28;19996;-30
2022/07/28 10:29:09;;;;;;;;;;;;;;;;;;5015349;28;19933;-30
2022/07/28 10:31:35;;;;;;;;;;;;;;;;;;5015206;28;19918;-28
2022/07/28 10:34:02;;;;;;;;;;;;;;;;;;5015311;28;20263;-28
2022/07/28 10:36:28;;;;;;;;;;;;;;;;;;5015169;28;20013;-28
2022/07/28 10:38:54;;;;;;;;;;;;;;;;;;5014150;28;19914;-27
2022/07/28 10:41:20;;;;;;;;;;;;;;;;;;5015358;28;19916;-29
2022/07/28 10:43:46;;;;;;;;;;;;;;;;;;5015072;28;19913;-28
2022/07/28 10:46:12;;;;;;;;;;;;;;;;;;5014074;28;19917;-28
2022/07/28 10:48:38;;;;;;;;;;;;;;;;;;5014882;28;19921;-28
2022/07/28 10:51:04;;;;;;;;;;;;;;;;;;5014031;28;20004;-28
2022/07/28 10:53:30;;;;;;;;;;;;;;;;;;5014711;28;19924;-30
2022/07/28 10:55:56;;;;;;;;;;;;;;;;;;5014854;28;19920;-28
2022/07/28 10:58:22;;;;;;;;;;;;;;;;;;5014873;28;20237;-28
2022/07/28 11:00:48;;;;;;;;;;;;;;;;;;5014893;28;19953;-28
2022/07/28 11:03:14;;;;;;;;;;;;;;;;;;5014472;28;20356;-28
2022/07/28 11:05:41;;;;;;;;;;;;;;;;;;5014751;28;19913;-28
2022/07/28 11:08:07;;;;;;;;;;;;;;;;;;5014701;28;19921;-28
2022/07/28 11:10:32;;;;;;;;;;;;;;;;;;5014769;28;20276;-28
2022/07/28 11:12:59;;;;;;;;;;;;;;;;;;5014576;28;19918;-28
2022/07/28 11:15:25;;;;;;;;;;;;;;;;;;5014653;28;19914;-28
2022/07/28 11:17:51;;;;;;;;;;;;;;;;;;5014617;28;19981;-28
2022/07/28 11:20:17;;;;;;;;;;;;;;;;;;5016261;28;19935;-29
2022/07/28 11:22:43;;;;;;;;;;;;;;;;;;5018340;28;19921;-29
2022/07/28 11:25:09;;;;;;;;;;;;;;;;;;5018386;28;19914;-29
2022/07/28 11:27:35;;;;;;;;;;;;;;;;;;5017135;28;19956;-34
2022/07/28 11:30:01;;;;;;;;;;;;;;;;;;5018289;28;20021;-28
2022/07/28 11:32:27;;;;;;;;;;;;;;;;;;5018152;28;20007;-28
2022/07/28 11:34:53;;;;;;;;;;;;;;;;;;5018268;28;20352;-29
2022/07/28 11:37:19;;;;;;;;;;;;;;;;;;5017188;28;20229;-29
2022/07/28 11:39:45;;;;;;;;;;;;;;;;;;5018234;28;19977;-28
2022/07/28 11:42:11;;;;;;;;;;;;;;;;;;5018088;28;19917;-29
2022/07/28 11:44:37;;;;;;;;;;;;;;;;;;5018175;28;19992;-29
2022/07/28 11:47:03;;;;;;;;;;;;;;;;;;5018299;28;19913;-28
2022/07/28 11:49:29;;;;;;;;;;;;;;;;;;5018044;28;19914;-28
2022/07/28 11:51:55;;;;;;;;;;;;;;;;;;5017783;28;20233;-28
2022/07/28 11:54:21;;;;;;;;;;;;;;;;;;5018008;28;19910;-28
2022/07/28 11:56:47;;;;;;;;;;;;;;;;;;5018449;28;19916;-29
2022/07/28 11:59:15;;;;;;;;;;;;;;;;;;5017833;28;19996;-28
2022/07/28 12:01:41;;;;;;;;;;;;;;;;;;5018448;28;19909;-28
2022/07/28 12:04:07;;;;;;;;;;;;;;;;;;5017439;28;19929;-28
2022/07/28 12:06:33;;;;;;;;;;;;;;;;;;5018030;28;19910;-28
2022/07/28 12:08:59;;;;;;;;;;;;;;;;;;5017743;28;19916;-28
2022/07/28 12:11:25;;;;;;;;;;;;;;;;;;5017567;28;20303;-28
2022/07/28 12:13:51;;;;;;;;;;;;;;;;;;5017576;28;19972;-29
2022/07/28 12:16:17;;;;;;;;;;;;;;;;;;5017532;28;19956;-28
2022/07/28 12:18:43;;;;;;;;;;;;;;;;;;5017812;28;19918;-29
2022/07/28 12:21:09;;;;;;;;;;;;;;;;;;5017484;28;20256;-27
2022/07/28 12:23:38;;;;;;;;;;;;;;;;;;5017403;28;19909;-29
2022/07/28 12:26:05;;;;;;;;;;;;;;;;;;5016278;28;19913;-28
2022/07/28 12:28:31;;;;;;;;;;;;;;;;;;5017314;28;19914;-29
2022/07/28 12:30:57;;;;;;;;;;;;;;;;;;5016829;28;19940;-27
2022/07/28 12:33:23;;;;;;;;;;;;;;;;;;5017077;28;20344;-28
2022/07/28 12:35:49;;;;;;;;;;;;;;;;;;5017113;28;19921;-28
2022/07/28 12:38:15;;;;;;;;;;;;;;;;;;5017367;28;19909;-30
2022/07/28 12:40:41;;;;;;;;;;;;;;;;;;5017395;28;20009;-28
2022/07/28 12:43:07;;;;;;;;;;;;;;;;;;5016979;28;19945;-28
2022/07/28 12:45:33;;;;;;;;;;;;;;;;;;5016924;28;19916;-30
2022/07/28 12:47:59;;;;;;;;;;;;;;;;;;5016868;28;19913;-28
2022/07/28 12:50:25;;;;;;;;;;;;;;;;;;5016986;28;19920;-28
2022/07/28 12:52:51;;;;;;;;;;;;;;;;;;5015366;28;20016;-28
2022/07/28 12:55:17;;;;;;;;;;;;;;;;;;5016523;28;19948;-28
2022/07/28 12:57:46;;;;;;;;;;;;;;;;;;5016644;28;20260;-29
2022/07/28 13:00:12;;;;;;;;;;;;;;;;;;5016692;28;19917;-30
2022/07/28 13:02:39;;;;;;;;;;;;;;;;;;5016203;28;20002;-28
2022/07/28 13:05:06;;;;;;;;;;;;;;;;;;5016898;28;20296;-30
2022/07/28 13:07:32;;;;;;;;;;;;;;;;;;5016687;28;19924;-28
2022/07/28 13:09:58;;;;;;;;;;;;;;;;;;5016530;28;19917;-27
2022/07/28 13:12:24;;;;;;;;;;;;;;;;;;5016327;28;19917;-28
2022/07/28 13:14:51;;;;;;;;;;;;;;;;;;5016740;28;20040;-28
2022/07/28 13:17:17;;;;;;;;;;;;;;;;;;5016399;28;19913;-27
2022/07/28 13:19:44;;;;;;;;;;;;;;;;;;5016383;28;19917;-28
2022/07/28 13:22:10;;;;;;;;;;;;;;;;;;5016141;28;19914;-28
2022/07/28 13:24:36;;;;;;;;;;;;;;;;;;5016249;28;20300;-28
2022/07/28 13:27:02;;;;;;;;;;;;;;;;;;5016236;28;19913;-28
2022/07/28 13:29:28;;;;;;;;;;;;;;;;;;5016215;28;19960;-29
2022/07/28 13:31:54;;;;;;;;;;;;;;;;;;5015997;28;19961;-28
2022/07/28 13:34:20;;;;;;;;;;;;;;;;;;5016089;28;19913;-28
2022/07/28 13:36:46;;;;;;;;;;;;;;;;;;5016480;28;20248;-28
2022/07/28 13:39:15;;;;;;;;;;;;;;;;;;5016277;28;19914;-28
2022/07/28 13:41:41;;;;;;;;;;;;;;;;;;5015645;28;19910;-28
2022/07/28 13:44:07;;;;;;;;;;;;;;;;;;5015430;28;19909;-28
2022/07/28 13:46:33;;;;;;;;;;;;;;;;;;5015872;28;19951;-29
2022/07/28 13:48:59;;;;;;;;;;;;;;;;;;5016046;28;20251;-28
2022/07/28 13:51:25;;;;;;;;;;;;;;;;;;5015891;28;19918;-28
2022/07/28 13:53:51;;;;;;;;;;;;;;;;;;5015574;28;20008;-28
2022/07/28 13:56:17;;;;;;;;;;;;;;;;;;5015947;28;19959;-28
2022/07/28 13:58:43;;;;;;;;;;;;;;;;;;5015614;28;20052;-28
2022/07/28 14:01:09;;;;;;;;;;;;;;;;;;5015822;28;19995;-28
2022/07/28 14:03:35;;;;;;;;;;;;;;;;;;5015425;28;20008;-28
2022/07/28 14:06:01;;;;;;;;;;;;;;;;;;5015846;28;19960;-29
2022/07/28 14:08:27;;;;;;;;;;;;;;;;;;5015344;28;19914;-28
2022/07/28 14:10:53;;;;;;;;;;;;;;;;;;5015741;28;19939;-28
2022/07/28 14:13:19;;;;;;;;;;;;;;;;;;5015234;28;19922;-29
2022/07/28 14:15:45;;;;;;;;;;;;;;;;;;5015609;28;19914;-29
2022/07/28 14:18:11;;;;;;;;;;;;;;;;;;5015384;28;19913;-28
2022/07/28 14:20:37;;;;;;;;;;;;;;;;;;5015278;28;20017;-28
2022/07/28 14:23:03;;;;;;;;;;;;;;;;;;5015162;28;19953;-29
2022/07/28 14:25:29;;;;;;;;;;;;;;;;;;5015272;28;19967;-28
2022/07/28 14:27:55;;;;;;;;;;;;;;;;;;5015399;28;19913;-28
2022/07/28 14:30:22;;;;;;;;;;;;;;;;;;5015290;28;19910;-28
2022/07/28 14:32:47;;;;;;;;;;;;;;;;;;5015063;28;19949;-29
2022/07/28 14:35:14;;;;;;;;;;;;;;;;;;5015137;28;19952;-29
2022/07/28 14:37:40;;;;;;;;;;;;;;;;;;5015151;28;19913;-29
2022/07/28 14:40:06;;;;;;;;;;;;;;;;;;5015028;28;20256;-28
2022/07/28 14:42:31;;;;;;;;;;;;;;;;;;5014934;28;19924;-29
2022/07/28 14:44:58;;;;;;;;;;;;;;;;;;5014923;28;19909;-28
2022/07/28 14:47:24;;;;;;;;;;;;;;;;;;5014899;28;20047;-28
2022/07/28 14:49:50;;;;;;;;;;;;;;;;;;5015171;28;19979;-29
2022/07/28 14:52:16;;;;;;;;;;;;;;;;;;5015035;28;19956;-28
2022/07/28 14:54:43;;;;;;;;;;;;;;;;;;5018235;28;20258;-28
2022/07/28 14:57:09;;;;;;;;;;;;;;;;;;5021317;28;19961;-28
2022/07/28 14:59:35;;;;;;;;;;;;;;;;;;5021285;28;20030;-28
2022/07/28 15:02:01;;;;;;;;;;;;;;;;;;5021129;28;19918;-29
2022/07/28 15:04:27;;;;;;;;;;;;;;;;;;5020955;28;19928;-28
2022/07/28 15:06:53;;;;;;;;;;;;;;;;;;5020292;28;20261;-29
2022/07/28 15:09:19;;;;;;;;;;;;;;;;;;5021599;28;19920;-28
2022/07/28 15:11:46;;;;;;;;;;;;;;;;;;5021260;28;19921;-28
2022/07/28 15:14:12;;;;;;;;;;;;;;;;;;5021376;28;19920;-29
2022/07/28 15:16:38;;;;;;;;;;;;;;;;;;5021355;28;19929;-28
2022/07/28 15:19:05;;;;;;;;;;;;;;;;;;5020335;28;20308;-28
2022/07/28 15:21:31;;;;;;;;;;;;;;;;;;5021260;28;19918;-28
2022/07/28 15:23:57;;;;;;;;;;;;;;;;;;5021297;28;19988;-28
2022/07/28 15:26:23;;;;;;;;;;;;;;;;;;5021076;28;19920;-28
2022/07/28 15:28:49;;;;;;;;;;;;;;;;;;5021235;28;20004;-28
2022/07/28 15:31:15;;;;;;;;;;;;;;;;;;5021380;28;19960;-30
2022/07/28 15:33:41;;;;;;;;;;;;;;;;;;5020999;28;19960;-29
2022/07/28 15:36:07;;;;;;;;;;;;;;;;;;5021387;28;19955;-29
2022/07/28 15:38:34;;;;;;;;;;;;;;;;;;5021225;28;19921;-30
2022/07/28 15:41:00;;;;;;;;;;;;;;;;;;5020997;28;19917;-30
2022/07/28 15:43:26;;;;;;;;;;;;;;;;;;5020902;28;20276;-29
2022/07/28 15:45:52;;;;;;;;;;;;;;;;;;5021147;28;19917;-29
2022/07/28 15:48:18;;;;;;;;;;;;;;;;;;5021026;28;19945;-29
2022/07/28 15:50:47;;;;;;;;;;;;;;;;;;5020982;28;19913;-30
2022/07/28 15:53:13;;;;;;;;;;;;;;;;;;5019855;28;20340;-29
2022/07/28 15:55:40;;;;;;;;;;;;;;;;;;5020879;28;19971;-29
2022/07/28 15:58:06;;;;;;;;;;;;;;;;;;5020828;28;19937;-29
2022/07/28 16:00:32;;;;;;;;;;;;;;;;;;5020918;28;19928;-30
2022/07/28 16:02:58;;;;;;;;;;;;;;;;;;5019710;28;19917;-29
2022/07/28 16:05:24;;;;;;;;;;;;;;;;;;5019080;28;19910;-30
2022/07/28 16:07:50;;;;;;;;;;;;;;;;;;5017741;28;19913;-29
2022/07/28 16:10:16;;;;;;;;;;;;;;;;;;5017660;28;19924;-30
2022/07/28 16:12:42;;;;;;;;;;;;;;;;;;5017476;28;20245;-29
2022/07/28 16:15:08;;;;;;;;;;;;;;;;;;5017459;28;19921;-29
2022/07/28 16:17:36;;;;;;;;;;;;;;;;;;5017454;28;19971;-29
2022/07/28 16:20:02;;;;;;;;;;;;;;;;;;5017731;28;19921;-29
2022/07/28 16:22:28;;;;;;;;;;;;;;;;;;5017234;28;19910;-29
2022/07/28 16:24:54;;;;;;;;;;;;;;;;;;5017715;28;19972;-29
2022/07/28 16:27:20;;;;;;;;;;;;;;;;;;5017576;28;19913;-29
2022/07/28 16:29:48;;;;;;;;;;;;;;;;;;5017304;28;19923;-29
2022/07/28 16:32:14;;;;;;;;;;;;;;;;;;5017267;28;19917;-29
2022/07/28 16:34:40;;;;;;;;;;;;;;;;;;5017193;28;19914;-29
2022/07/28 16:37:06;;;;;;;;;;;;;;;;;;5017320;28;19967;-30
2022/07/28 16:39:32;;;;;;;;;;;;;;;;;;5017112;28;20012;-30